Latest Coastal Weather Observations for Robe Airport

IDV60701

Issued at 5:55 pm EST Friday 1 August 2014 (issued every 10 minutes, with the page automatically refreshed every 10 minutes)

About coastal observations | Map of coastal stations | Coastal observations for VIC | Marine services | Other Formats
Station Details ID: 026105 Name: ROBE AIRFIELD Lat: -37.18 Lon: 139.81 Height: 3.0 m
Data from the previous 72 hours. | See also: Recent months at Robe Airport
Date/Time
EST
Temp

°C
Wind Pressure Rain
since 9am
mm
Weather Cloud Vis
km
Sea
Height
m
Swell
Dir
 
Speed
knots
Gust
knots
hPa Trend Height
m
Period
s
Dir
01/05:30pm 8.7 SSW 15 22 1021.3 - 2.2 - - - - - - -
01/05:00pm 9.8 SW 15 27 1020.7 - 1.6 - - - - - - -
01/04:30pm 8.9 SW 19 30 1020.0 - 1.6 - - - - - - -
01/04:25pm 10.2 SSW 17 27 1019.9 - 1.6 - - - - - - -
01/04:00pm 10.7 SSW 16 25 1019.5 - 1.6 - - - - - - -
01/03:30pm 10.8 SSW 18 28 1019.1 - 1.6 - - - - - - -
01/03:03pm 11.7 SSW 18 28 1018.3 - 1.6 - - - - - - -
01/03:00pm 11.1 SSW 18 26 1018.2 - 1.6 - - - - - - -
01/02:30pm 10.7 SSW 17 33 1017.6 - 1.6 - - - - - - -
01/02:00pm 9.2 SSW 22 34 1017.1 - 1.6 - - - - - - -
01/01:54pm 11.8 SSW 18 34 1016.8 - 1.6 - - - - - - -
01/01:30pm 10.9 SSW 20 29 1016.6 - 1.6 - - - - - - -
01/01:15pm 10.5 SSW 16 26 1016.5 - 1.6 - - - - - - -
01/01:00pm 8.9 S 20 28 1016.4 - 1.6 - - - - - - -
01/12:34pm 10.7 SSW 18 29 1015.7 - 1.2 - - - - - - -
01/12:30pm 10.9 SSW 16 25 1015.7 - 1.2 - - - - - - -
01/12:00pm 8.8 SSW 20 30 1015.4 - 1.2 - - - - - - -
01/11:57am 8.8 SSW 20 30 1015.4 - 1.2 - - - - - - -
01/11:48am 8.5 S 20 24 1015.1 - 1.2 - - - - - - -
01/11:35am 8.3 S 32 44 1014.8 - 1.2 - - - - - - -
01/11:33am 8.8 S 36 44 1014.4 - 1.2 - - - - - - -
01/11:31am 10.4 SW 21 38 1014.3 - 1.2 - - - - - - -
01/11:30am 10.5 SW 20 30 1014.3 - 1.2 - - - - - - -
01/11:00am 9.7 SW 19 30 1013.5 - 1.2 - - - - - - -
01/10:37am 8.7 SW 16 26 1012.9 - 1.2 - - - - - - -
01/10:30am 7.9 SSW 14 19 1012.6 - 1.2 - - - - - - -
01/10:00am 6.8 SW 26 36 1012.4 - 0.4 - - - - - - -
01/09:30am 8.6 SW 24 35 1010.9 - 13.4 Recent precip. - - - - - -
01/09:00am 9.6 SSW 23 34 1009.6 - 13.2 - - - - - - -
01/08:30am 8.7 SW 21 32 1008.4 - 13.2 - - - - - - -
01/08:00am 7.1 SSW 22 46 1007.5 - 13.2 - - - - - - -
01/07:50am 8.3 SW 24 44 1007.5 - 12.2 - - - - - - -
01/07:31am 8.8 SW 22 33 1006.5 - 12.2 - - - - - - -
01/07:30am 8.8 SW 21 30 1006.6 - 12.2 - - - - - - -
01/07:00am 7.6 SW 23 41 1005.7 - 12.0 - - - - - - -
01/06:42am 7.9 WSW 20 43 1005.3 - 11.8 - - - - - - -
01/06:30am 8.0 WSW 16 29 1004.9 - 11.8 Recent precip. - - - - - -
01/06:00am 7.4 WSW 21 35 1004.7 - 11.8 - - - - - - -
01/05:30am 9.0 WSW 17 33 1003.8 - 11.6 - - - - - - -
01/05:14am 8.6 WSW 17 37 1003.7 - 11.6 - - - - - - -
01/05:00am 9.5 WSW 15 27 1003.5 - 11.2 - - - - - - -
01/04:31am 9.2 WSW 18 28 1003.3 - 11.2 - - - - - - -
01/04:30am 9.2 WSW 19 28 1003.2 - 11.2 - - - - - - -
01/04:00am 7.8 WSW 18 33 1003.2 - 11.2 - - - - - - -
01/03:33am 8.8 W 15 33 1003.3 - 10.6 - - - - - - -
01/03:30am 9.1 W 13 24 1003.1 - 10.6 Rain - - - - - -
01/03:00am 7.8 W 10 18 1003.6 - 10.4 - - - - - - -
01/02:30am 7.2 WSW 18 41 1004.4 - 10.4 - - - - - - -
01/02:16am 6.8 WSW 26 36 1004.8 - 9.8 - - - - - - -
01/02:00am 8.0 W 18 29 1003.7 - 9.6 - - - - - - -
01/01:50am 7.0 W 15 27 1004.0 - 9.6 - - - - - - -
01/01:38am 6.5 WNW 15 20 1004.4 - 9.6 - - - - - - -
01/01:30am 6.0 WSW 20 37 1005.1 - 9.4 - - - - - - -
01/01:00am 6.8 SW 17 28 1004.8 - 8.4 - - - - - - -
01/12:46am 7.8 SW 22 33 1004.6 - 8.0 - - - - - - -
01/12:45am 8.2 SW 21 30 1004.5 - 7.8 - - - - - - -
01/12:30am 7.5 W 16 29 1004.2 - 7.6 Rain - - - - - -
01/12:00am 10.4 W 17 30 1003.7 - 7.2 - - - - - - -
 
Date/Time
EST
Temp

°C
Wind Pressure Rain
since 9am
mm
Weather Cloud Vis
km
Sea
Height
m
Swell
Dir
 
Speed
knots
Gust
knots
hPa Trend Height
m
Period
s
Dir
31/11:42pm 10.3 W 15 27 1003.9 - 7.2 - - - - - - -
31/11:30pm 9.8 W 14 22 1003.9 - 7.2 - - - - - - -
31/11:00pm 9.1 W 15 28 1003.7 - 7.2 - - - - - - -
31/10:36pm 10.4 W 15 30 1003.9 - 7.0 - - - - - - -
31/10:30pm 10.0 W 14 23 1004.0 - 7.0 - - - - - - -
31/10:08pm 9.8 W 15 30 1004.0 - 7.0 - - - - - - -
31/10:00pm 9.4 W 15 23 1004.0 - 7.0 - - - - - - -
31/09:30pm 9.7 W 16 27 1003.9 - 7.0 Recent precip. - - - - - -
31/09:22pm 10.2 W 15 30 1003.8 - 7.0 - - - - - - -
31/09:00pm 8.3 W 14 22 1003.9 - 7.0 - - - - - - -
31/08:34pm 9.8 W 15 33 1004.1 - 6.8 - - - - - - -
31/08:30pm 9.7 W 14 27 1003.9 - 6.8 - - - - - - -
31/08:00pm 9.6 W 16 27 1003.5 - 6.8 - - - - - - -
31/07:45pm 9.6 W 16 27 1003.4 - 6.8 - - - - - - -
31/07:30pm 9.1 W 14 27 1003.2 - 6.8 - - - - - - -
31/07:00pm 9.9 W 17 30 1002.8 - 6.8 - - - - - - -
31/06:30pm 9.9 W 15 26 1002.5 - 6.8 Recent precip. - - - - - -
31/06:00pm 10.4 W 16 29 1001.9 - 6.6 - - - - - - -
31/05:30pm 9.0 WSW 17 30 1001.4 - 6.6 - - - - - - -
31/05:04pm 10.3 W 17 28 1001.0 - 6.2 - - - - - - -
31/05:00pm 10.4 W 17 25 1001.1 - 6.2 - - - - - - -
31/04:41pm 9.8 W 15 25 1000.9 - 6.2 - - - - - - -
31/04:30pm 9.1 W 14 23 1001.0 - 6.2 - - - - - - -
31/04:06pm 9.4 W 15 33 1001.0 - 6.0 - - - - - - -
31/04:00pm 10.0 W 13 21 1000.5 - 6.0 - - - - - - -
31/03:30pm 9.6 W 15 35 1000.3 - 6.0 Recent precip. - - - - - -
31/03:00pm 9.6 WSW 17 30 999.9 - 5.8 - - - - - - -
31/02:40pm 11.4 W 16 31 998.9 - 5.8 - - - - - - -
31/02:30pm 11.3 W 15 24 999.0 - 5.8 - - - - - - -
31/02:00pm 9.3 W 19 32 999.2 - 5.8 - - - - - - -
31/01:36pm 9.8 W 15 26 999.4 - 5.2 - - - - - - -
31/01:30pm 9.9 W 16 23 999.3 - 5.2 - - - - - - -
31/01:00pm 9.9 WSW 15 27 999.3 - 5.2 - - - - - - -
31/12:30pm 9.3 W 17 31 999.6 - 5.2 Rain - - - - - -
31/12:00pm 9.3 WSW 16 30 999.7 - 4.4 - - - - - - -
31/11:30am 9.6 WSW 15 27 999.1 - 3.4 - - - - - - -
31/11:00am 9.8 WSW 18 36 998.6 - 2.4 - - - - - - -
31/10:30am 10.2 WSW 19 34 998.5 - 2.2 - - - - - - -
31/10:00am 11.5 WSW 15 30 997.4 - 1.6 - - - - - - -
31/09:52am 13.4 W 15 22 997.2 - 0.6 - - - - - - -
31/09:36am 14.7 NNW 25 35 996.1 - 0.0 - - - - - - -
31/09:30am 14.6 NNW 24 31 996.3 - 0.4 - - - - - - -
31/09:20am 14.3 NNW 24 35 996.6 - 0.4 - - - - - - -
31/09:00am 14.2 NNW 23 33 997.1 - 0.4 - - - - - - -
31/08:33am 14.1 NNW 23 34 997.5 - 0.4 - - - - - - -
31/08:30am 14.2 NNW 23 30 997.4 - 0.4 - - - - - - -
31/08:00am 13.9 NNW 26 37 997.9 - 0.4 - - - - - - -
31/07:48am 13.7 NNW 24 34 998.0 - 0.4 - - - - - - -
31/07:30am 13.9 NNW 24 33 998.2 - 0.4 - - - - - - -
31/07:00am 13.5 NNW 22 31 998.6 - 0.4 - - - - - - -
31/06:47am 13.6 NNW 22 32 998.7 - 0.4 - - - - - - -
31/06:30am 13.7 NNW 22 28 998.9 - 0.4 - - - - - - -
31/06:00am 13.6 NNW 21 30 999.5 - 0.4 - - - - - - -
31/05:35am 13.6 NNW 22 33 1000.0 - 0.4 - - - - - - -
31/05:30am 13.8 NNW 22 31 1000.0 - 0.4 - - - - - - -
31/05:09am 13.6 NNW 21 31 1000.3 - 0.4 - - - - - - -
31/05:00am 13.4 NNW 21 30 1000.4 - 0.4 - - - - - - -
31/04:30am 14.2 NW 19 26 1001.1 - 0.4 - - - - - - -
31/04:00am 13.9 NW 22 33 1001.6 - 0.4 - - - - - - -
31/03:51am 13.9 NNW 19 29 1001.8 - 0.4 - - - - - - -
31/03:30am 14.2 NNW 20 28 1002.2 - 0.4 - - - - - - -
31/03:00am 14.3 NNW 19 26 1002.9 - 0.4 - - - - - - -
31/02:30am 14.4 NNW 21 27 1003.2 - 0.4 - - - - - - -
31/02:00am 14.2 NNW 18 25 1003.7 - 0.4 - - - - - - -
31/01:30am 14.1 NNW 19 26 1004.2 - 0.4 - - - - - - -
31/01:14am 14.1 NNW 18 28 1004.4 - 0.4 - - - - - - -
31/01:00am 14.2 NNW 21 28 1004.5 - 0.4 - - - - - - -
31/12:30am 14.4 NNW 22 32 1004.9 - 0.4 - - - - - - -
31/12:08am 14.3 NNW 20 32 1005.7 - 0.4 - - - - - - -
31/12:00am 14.2 NNW 20 26 1005.8 - 0.4 - - - - - - -
 
Date/Time
EST
Temp

°C
Wind Pressure Rain
since 9am
mm
Weather Cloud Vis
km
Sea
Height
m
Swell
Dir
 
Speed
knots
Gust
knots
hPa Trend Height
m
Period
s
Dir
30/11:30pm 13.9 NNW 20 27 1006.1 - 0.4 - - - - - - -
30/11:00pm 13.8 NNW 18 25 1006.8 - 0.4 - - - - - - -
30/10:30pm 13.9 NNW 18 25 1007.3 - 0.4 - - - - - - -
30/10:00pm 13.9 NNW 18 27 1007.8 - 0.4 - - - - - - -
30/09:30pm 14.0 NNW 18 25 1008.2 - 0.4 Rain - - - - - -
30/09:00pm 14.0 NNW 20 31 1008.7 - 0.2 - - - - - - -
30/08:33pm 13.8 NW 21 34 1008.9 - 0.2 - - - - - - -
30/08:30pm 13.8 NW 21 30 1009.0 - 0.2 - - - - - - -
30/08:19pm 14.2 NW 20 31 1009.2 - 0.0 - - - - - - -
30/08:00pm 14.2 NNW 21 29 1009.4 - 0.0 - - - - - - -
30/07:30pm 14.2 NNW 18 24 1009.5 - 0.0 - - - - - - -
30/07:00pm 13.9 NNW 17 21 1009.6 - 0.0 - - - - - - -
30/06:30pm 13.6 NNW 14 20 1009.6 - 0.0 - - - - - - -
30/06:00pm 13.5 NNW 13 20 1009.7 - 0.0 - - - - - - -
30/05:30pm 14.2 NW 19 28 1009.5 - 0.0 - - - - - - -
30/05:10pm 14.7 NW 16 27 1009.6 - 0.0 - - - - - - -
30/05:00pm 14.9 NW 14 21 1009.6 - 0.0 - - - - - - -
30/04:30pm 14.9 NW 13 20 1009.8 - 0.0 - - - - - - -
30/04:00pm 15.1 NW 15 21 1010.0 - 0.0 - - - - - - -
30/03:30pm 15.9 NW 15 23 1010.1 - 0.0 - - - - - - -
30/03:00pm 16.2 NW 17 24 1010.2 - 0.0 - - - - - - -
30/02:30pm 16.5 NW 16 24 1010.5 - 0.0 - - - - - - -
30/02:00pm 15.8 NW 19 27 1010.7 - 0.0 - - - - - - -
30/01:30pm 15.8 NW 16 22 1011.1 - 0.0 - - - - - - -
30/01:00pm 15.7 NW 14 20 1011.5 - 0.0 - - - - - - -
30/12:30pm 16.5 NW 15 19 1012.0 - 0.0 - - - - - - -
30/12:00pm 15.9 NW 14 23 1012.6 - 0.0 - - - - - - -
30/11:30am 15.6 WNW 17 26 1012.7 - 0.0 - - - - - - -
30/11:00am 15.8 NW 15 21 1012.8 - 0.0 - - - - - - -
30/10:30am 15.1 NW 15 20 1012.9 - 0.0 - - - - - - -
30/10:00am 15.2 NW 15 21 1012.9 - 0.0 - - - - - - -
30/09:30am 14.1 NW 13 20 1013.0 - 4.2 Recent precip. - - - - - -
30/09:00am 14.2 WNW 12 18 1012.8 - 3.8 - - - - - - -
30/08:30am 14.0 WNW 15 23 1012.8 - 3.8 - - - - - - -
30/08:00am 14.3 WNW 13 20 1012.6 - 3.6 - - - - - - -
30/07:30am 13.3 WNW 12 17 1012.5 - 3.6 - - - - - - -
30/07:00am 14.0 WNW 13 20 1012.3 - 3.6 - - - - - - -
30/06:30am 13.8 WNW 9 15 1012.1 - 3.6 Recent precip. - - - - - -
30/06:00am 13.9 NW 10 15 1012.0 - 3.4 - - - - - - -
30/05:30am 13.6 NW 11 14 1012.0 - 3.4 - - - - - - -
30/05:00am 13.6 WNW 13 18 1012.2 - 3.4 - - - - - - -
30/04:30am 13.8 NW 11 17 1012.1 - 3.4 - - - - - - -
30/04:00am 13.3 NW 11 14 1012.3 - 3.4 - - - - - - -
30/03:30am 13.5 NW 10 16 1012.4 - 3.4 - - - - - - -
30/03:00am 14.1 WNW 12 18 1012.7 - 3.4 - - - - - - -
30/02:30am 14.2 WNW 9 14 1012.9 - 3.4 - - - - - - -
30/02:00am 14.2 WNW 9 16 1013.1 - 3.4 - - - - - - -
30/01:30am 14.0 W 10 15 1013.4 - 3.4 - - - - - - -
30/01:00am 14.0 W 10 17 1013.3 - 3.4 - - - - - - -
30/12:30am 14.2 W 11 17 1013.4 - 3.4 - - - - - - -
30/12:00am 14.1 W 12 23 1013.4 - 3.4 - - - - - - -
 
Date/Time
EST
Temp

°C
Wind Pressure Rain
since 9am
mm
Weather Cloud Vis
km
Sea
Height
m
Swell
Dir
 
Speed
knots
Gust
knots
hPa Trend Height
m
Period
s
Dir
29/11:30pm 14.2 W 12 22 1013.4 - 3.4 - - - - - - -
29/11:00pm 14.6 W 13 20 1013.0 - 3.2 - - - - - - -
29/10:30pm 14.6 WNW 15 25 1012.8 - 3.2 - - - - - - -
29/10:00pm 14.7 WNW 13 20 1012.8 - 3.2 - - - - - - -
29/09:30pm 14.4 WNW 13 20 1012.5 - 3.2 - - - - - - -
29/09:00pm 14.6 WNW 14 21 1012.4 - 3.2 - - - - - - -
29/08:30pm 14.5 WNW 13 19 1012.1 - 3.2 - - - - - - -
29/08:00pm 13.8 WNW 12 19 1012.0 - 3.2 - - - - - - -
29/07:30pm 14.0 WNW 15 24 1011.6 - 3.2 - - - - - - -
29/07:00pm 14.4 WNW 14 21 1011.4 - 3.2 - - - - - - -
29/06:30pm 14.6 WNW 16 26 1011.3 - 3.0 Recent precip. - - - - - -
29/06:29pm 14.8 WNW 16 26 1011.4 - 3.0 - - - - - - -

Other Formats:

Comma delimited format used in spreadsheet applications
http://www.bom.gov.au/fwo/IDV60701/IDV60701.95816.axf

JavaScript Object Notation format (JSON) in row-major order
http://www.bom.gov.au/fwo/IDV60701/IDV60701.95816.json